Time;durP1;ratioP1;P1;durP2;ratioP2;P2;SDS_P1;SDS_P2;PMS_P1;PMS_P2;Temp;Humidity;BMP_temperature;BMP_pressure;BME280_temperature;BME280_humidity;BME280_pressure;Samples;Min_cycle;Max_cycle;Signal;HPM_P1;HPM_P2
2021/04/18 00:04:55;;;;;;;5.25;2.78;;;;;;;;;;10395359;28;20058;-84
2021/04/18 00:09:58;;;;;;;3.97;2.80;;;;;;;;;;10397525;28;20033;-84
2021/04/18 00:15:00;;;;;;;5.05;2.88;;;;;;;;;;10407226;28;20030;-83
2021/04/18 00:20:01;;;;;;;5.03;3.20;;;;;;;;;;10407975;28;20029;-82
2021/04/18 00:25:03;;;;;;;4.53;3.00;;;;;;;;;;10398536;28;20025;-84
2021/04/18 00:30:06;;;;;;;4.20;2.60;;;;;;;;;;10394803;28;20511;-84
2021/04/18 00:35:07;;;;;;;4.57;2.80;;;;;;;;;;10391604;28;20547;-83
2021/04/18 00:40:10;;;;;;;4.53;3.00;;;;;;;;;;10391523;28;20478;-84
2021/04/18 00:45:11;;;;;;;4.20;2.72;;;;;;;;;;10392441;28;20053;-83
2021/04/18 00:50:14;;;;;;;4.53;3.05;;;;;;;;;;10402356;28;20109;-81
2021/04/18 00:55:15;;;;;;;2.67;1.88;;;;;;;;;;10405034;28;20036;-81
2021/04/18 01:00:16;;;;;;;3.85;2.50;;;;;;;;;;10405213;28;20033;-82
2021/04/18 01:05:17;;;;;;;4.18;2.60;;;;;;;;;;10405522;28;20630;-82
2021/04/18 01:10:19;;;;;;;3.88;2.80;;;;;;;;;;10406755;28;20085;-83
2021/04/18 01:15:20;;;;;;;3.30;2.40;;;;;;;;;;10406107;28;20041;-81
2021/04/18 01:20:22;;;;;;;3.13;2.38;;;;;;;;;;10404725;28;20141;-81
2021/04/18 01:25:23;;;;;;;5.20;3.80;;;;;;;;;;10406517;28;20086;-81
2021/04/18 01:30:26;;;;;;;4.28;3.83;;;;;;;;;;10405551;28;20026;-82
2021/04/18 01:35:28;;;;;;;4.97;4.47;;;;;;;;;;10404749;28;20083;-82
2021/04/18 01:40:30;;;;;;;5.53;3.80;;;;;;;;;;10399695;28;20485;-82
2021/04/18 01:45:31;;;;;;;4.32;3.53;;;;;;;;;;10397568;28;20066;-81
2021/04/18 01:50:32;;;;;;;5.13;3.70;;;;;;;;;;10397655;28;20053;-81
2021/04/18 01:55:34;;;;;;;4.05;3.58;;;;;;;;;;10399683;28;20022;-83
2021/04/18 02:00:35;;;;;;;5.63;3.90;;;;;;;;;;10399863;28;20026;-82
2021/04/18 02:05:36;;;;;;;5.03;3.40;;;;;;;;;;10398830;28;20097;-82
2021/04/18 02:10:37;;;;;;;4.88;3.20;;;;;;;;;;10397422;28;20101;-83
2021/04/18 02:15:38;;;;;;;3.53;2.40;;;;;;;;;;10398921;28;20121;-83
2021/04/18 02:20:39;;;;;;;4.20;3.42;;;;;;;;;;10398272;28;20408;-83
2021/04/18 02:25:40;;;;;;;2.85;2.20;;;;;;;;;;10399163;28;20092;-83
2021/04/18 02:30:41;;;;;;;3.88;2.45;;;;;;;;;;10401079;28;20030;-82
2021/04/18 02:35:42;;;;;;;4.28;2.90;;;;;;;;;;10399426;28;20029;-83
2021/04/18 02:40:43;;;;;;;5.05;3.80;;;;;;;;;;10402470;28;20578;-81
2021/04/18 02:45:44;;;;;;;3.08;2.10;;;;;;;;;;10410206;28;20030;-80
2021/04/18 02:50:45;;;;;;;3.75;2.80;;;;;;;;;;10402065;28;20030;-81
2021/04/18 02:55:46;;;;;;;4.22;2.78;;;;;;;;;;10396243;28;20041;-81
2021/04/18 03:00:47;;;;;;;4.03;3.42;;;;;;;;;;10402980;28;20030;-82
2021/04/18 03:05:48;;;;;;;4.05;3.25;;;;;;;;;;10402711;28;20025;-82
2021/04/18 03:10:49;;;;;;;4.15;3.10;;;;;;;;;;10403665;28;20399;-83
2021/04/18 03:15:50;;;;;;;4.10;3.20;;;;;;;;;;10408838;28;20025;-82
2021/04/18 03:20:51;;;;;;;5.70;4.18;;;;;;;;;;10410868;28;20049;-82
2021/04/18 03:25:52;;;;;;;4.75;3.05;;;;;;;;;;10408677;28;20052;-82
2021/04/18 03:30:52;;;;;;;3.25;2.75;;;;;;;;;;10444059;28;20037;-81
2021/04/18 03:35:53;;;;;;;5.03;3.22;;;;;;;;;;10449445;28;20096;-82
2021/04/18 03:40:55;;;;;;;5.85;3.35;;;;;;;;;;10450428;28;20030;-82
2021/04/18 03:45:56;;;;;;;5.72;3.30;;;;;;;;;;10452866;28;20033;-82
2021/04/18 03:50:57;;;;;;;3.50;2.90;;;;;;;;;;10448729;28;20068;-82
2021/04/18 03:55:58;;;;;;;5.97;3.28;;;;;;;;;;10448641;28;20025;-82
2021/04/18 04:00:59;;;;;;;3.67;2.92;;;;;;;;;;10450156;28;20072;-82
2021/04/18 04:06:00;;;;;;;3.97;2.83;;;;;;;;;;10463289;28;20065;-81
2021/04/18 04:11:01;;;;;;;3.55;2.65;;;;;;;;;;10454307;28;20471;-81
2021/04/18 04:16:02;;;;;;;3.90;2.90;;;;;;;;;;10447307;28;20034;-82
2021/04/18 04:21:03;;;;;;;3.20;2.33;;;;;;;;;;10447348;28;20027;-82
2021/04/18 04:26:04;;;;;;;2.60;2.20;;;;;;;;;;10446022;28;20372;-82
2021/04/18 04:31:05;;;;;;;2.92;2.58;;;;;;;;;;10433889;28;20037;-85
2021/04/18 04:36:06;;;;;;;3.80;2.33;;;;;;;;;;10430502;28;20075;-84
2021/04/18 04:41:07;;;;;;;3.55;2.47;;;;;;;;;;10428519;28;20029;-83
2021/04/18 04:46:08;;;;;;;4.65;3.70;;;;;;;;;;10428964;28;20036;-84
2021/04/18 04:51:09;;;;;;;3.58;2.15;;;;;;;;;;10429643;28;20033;-84
2021/04/18 04:56:10;;;;;;;5.10;3.03;;;;;;;;;;10397428;28;20404;-83
2021/04/18 05:01:11;;;;;;;6.03;4.25;;;;;;;;;;10389786;28;20037;-83
2021/04/18 05:06:12;;;;;;;3.65;2.70;;;;;;;;;;10390169;28;20053;-84
2021/04/18 05:11:13;;;;;;;4.25;3.15;;;;;;;;;;10405205;28;20026;-84
2021/04/18 05:16:14;;;;;;;2.97;2.38;;;;;;;;;;10393489;28;20034;-84
2021/04/18 05:21:15;;;;;;;5.65;4.13;;;;;;;;;;10389567;28;20076;-84
2021/04/18 05:26:16;;;;;;;5.93;4.20;;;;;;;;;;10390181;28;20068;-85
2021/04/18 05:31:17;;;;;;;3.55;3.25;;;;;;;;;;10389515;28;20405;-84
2021/04/18 05:36:18;;;;;;;4.30;3.08;;;;;;;;;;10387938;28;20083;-83
2021/04/18 05:41:19;;;;;;;4.43;3.53;;;;;;;;;;10406938;28;20084;-81
2021/04/18 05:46:20;;;;;;;4.15;3.40;;;;;;;;;;10441222;28;20037;-83
2021/04/18 05:51:21;;;;;;;4.90;4.40;;;;;;;;;;10440131;28;20040;-83
2021/04/18 05:56:22;;;;;;;7.50;3.90;;;;;;;;;;10441385;28;20039;-83
2021/04/18 06:01:24;;;;;;;5.88;4.20;;;;;;;;;;10422972;28;20045;-82
2021/04/18 06:06:25;;;;;;;3.60;3.20;;;;;;;;;;10441685;28;20499;-83
2021/04/18 06:11:26;;;;;;;5.97;4.68;;;;;;;;;;10433764;28;20033;-84
2021/04/18 06:16:27;;;;;;;5.22;3.40;;;;;;;;;;10437542;28;20096;-84
2021/04/18 06:21:28;;;;;;;6.35;4.90;;;;;;;;;;10432383;28;20026;-83
2021/04/18 06:26:29;;;;;;;3.53;2.83;;;;;;;;;;10430884;28;20455;-85
2021/04/18 06:31:30;;;;;;;4.22;3.38;;;;;;;;;;10431676;28;20033;-84
2021/04/18 06:36:32;;;;;;;5.97;4.40;;;;;;;;;;10428208;28;20029;-83
2021/04/18 06:41:35;;;;;;;5.68;4.53;;;;;;;;;;10429275;28;20017;-84
2021/04/18 06:46:36;;;;;;;3.17;2.78;;;;;;;;;;10429806;28;20274;-84
2021/04/18 06:51:38;;;;;;;6.60;5.18;;;;;;;;;;10439609;28;20121;-84
2021/04/18 06:56:39;;;;;;;5.63;4.53;;;;;;;;;;10437935;28;20498;-84
2021/04/18 07:01:40;;;;;;;7.70;5.07;;;;;;;;;;10442372;28;20391;-82
2021/04/18 07:06:46;;;;;;;3.50;2.92;;;;;;;;;;10436928;28;20112;-86
2021/04/18 07:11:54;;;;;;;4.65;4.00;;;;;;;;;;10442834;28;20059;-82
2021/04/18 07:17:15;;;;;;;5.93;3.70;;;;;;;;;;10447428;28;20029;-82
2021/04/18 07:22:17;;;;;;;7.30;6.15;;;;;;;;;;10447601;28;20042;-82
2021/04/18 07:27:18;;;;;;;4.82;3.75;;;;;;;;;;10450490;28;20056;-82
2021/04/18 07:32:21;;;;;;;3.75;3.25;;;;;;;;;;10457714;28;20040;-82
2021/04/18 07:37:22;;;;;;;3.92;2.88;;;;;;;;;;10454138;28;20034;-80
2021/04/18 07:42:33;;;;;;;7.18;6.15;;;;;;;;;;10452214;28;20124;-80
2021/04/18 07:47:38;;;;;;;7.43;4.88;;;;;;;;;;10446388;28;20101;-81
2021/04/18 07:52:41;;;;;;;7.78;6.88;;;;;;;;;;10444348;28;20029;-80
2021/04/18 07:57:42;;;;;;;5.55;4.82;;;;;;;;;;10443684;28;20033;-81
2021/04/18 08:02:47;;;;;;;7.43;6.10;;;;;;;;;;10442742;28;20021;-81
2021/04/18 08:07:59;;;;;;;8.20;5.78;;;;;;;;;;10443120;28;20029;-81
2021/04/18 08:13:09;;;;;;;8.07;6.80;;;;;;;;;;10443548;28;20029;-82
2021/04/18 08:18:14;;;;;;;8.82;6.15;;;;;;;;;;10440659;28;20037;-81
2021/04/18 08:23:17;;;;;;;5.75;4.72;;;;;;;;;;10440760;28;20053;-81
2021/04/18 08:28:18;;;;;;;7.10;6.00;;;;;;;;;;10441401;28;20076;-81
2021/04/18 08:33:38;;;;;;;5.88;5.10;;;;;;;;;;10440300;28;20032;-82
2021/04/18 08:38:39;;;;;;;6.75;5.47;;;;;;;;;;10454729;28;20036;-82
2021/04/18 08:43:40;;;;;;;11.77;8.45;;;;;;;;;;10445338;28;20034;-82
2021/04/18 08:48:41;;;;;;;7.13;5.55;;;;;;;;;;10442900;28;20439;-83
2021/04/18 08:54:01;;;;;;;8.43;5.75;;;;;;;;;;10440408;28;20028;-84
2021/04/18 08:59:09;;;;;;;7.95;6.80;;;;;;;;;;10433367;28;20148;-83
2021/04/18 09:04:11;;;;;;;8.32;7.30;;;;;;;;;;10434192;28;20029;-83
2021/04/18 09:09:12;;;;;;;7.00;5.78;;;;;;;;;;10442265;28;20021;-83
2021/04/18 09:14:18;;;;;;;10.18;8.35;;;;;;;;;;10434232;28;20033;-84
2021/04/18 09:19:22;;;;;;;4.85;4.32;;;;;;;;;;10441043;28;20030;-83
2021/04/18 09:24:23;;;;;;;5.85;5.25;;;;;;;;;;10437014;28;20337;-84
2021/04/18 09:29:26;;;;;;;8.07;7.28;;;;;;;;;;10434040;28;20033;-81
2021/04/18 09:34:27;;;;;;;7.05;5.70;;;;;;;;;;10447013;28;20033;-82
2021/04/18 09:39:29;;;;;;;11.25;9.20;;;;;;;;;;10448450;28;20048;-82
2021/04/18 09:44:33;;;;;;;6.45;4.78;;;;;;;;;;10447458;28;20032;-81
2021/04/18 09:50:03;;;;;;;8.45;7.65;;;;;;;;;;10447002;28;20026;-84
2021/04/18 09:55:11;;;;;;;8.43;7.40;;;;;;;;;;10439098;28;20077;-83
2021/04/18 10:00:22;;;;;;;8.80;7.78;;;;;;;;;;10450532;28;20033;-82
2021/04/18 10:05:23;;;;;;;7.18;6.03;;;;;;;;;;10452991;28;20060;-82
2021/04/18 10:10:32;;;;;;;9.35;8.15;;;;;;;;;;10453163;28;20029;-82
2021/04/18 10:15:33;;;;;;;6.73;5.83;;;;;;;;;;10444602;28;20038;-83
2021/04/18 10:20:36;;;;;;;9.27;7.55;;;;;;;;;;10437770;28;20022;-81
2021/04/18 10:25:38;;;;;;;8.63;5.43;;;;;;;;;;10447769;28;20021;-82
2021/04/18 10:30:39;;;;;;;7.45;6.63;;;;;;;;;;10447129;28;20037;-83
2021/04/18 10:35:40;;;;;;;8.23;6.60;;;;;;;;;;10446526;28;20029;-81
2021/04/18 10:40:41;;;;;;;8.10;6.80;;;;;;;;;;10446732;28;20029;-84
2021/04/18 10:45:42;;;;;;;6.18;5.38;;;;;;;;;;10434439;28;20097;-84
2021/04/18 10:50:43;;;;;;;7.25;6.00;;;;;;;;;;10441041;28;20026;-85
2021/04/18 10:55:44;;;;;;;7.03;5.55;;;;;;;;;;10437379;28;20049;-84
2021/04/18 11:00:45;;;;;;;8.48;6.63;;;;;;;;;;10439877;28;20041;-84
2021/04/18 11:05:46;;;;;;;8.18;6.55;;;;;;;;;;10443768;28;20029;-83
2021/04/18 11:10:47;;;;;;;9.20;7.07;;;;;;;;;;10434715;28;20036;-84
2021/04/18 11:15:47;;;;;;;9.40;8.20;;;;;;;;;;10444881;28;20049;-81
2021/04/18 11:20:48;;;;;;;8.20;7.40;;;;;;;;;;10445742;28;20037;-83
2021/04/18 11:25:49;;;;;;;8.20;6.72;;;;;;;;;;10447605;28;20029;-81
2021/04/18 11:30:50;;;;;;;5.15;4.03;;;;;;;;;;10448331;28;20021;-82
2021/04/18 11:35:52;;;;;;;8.55;7.00;;;;;;;;;;10446568;28;20101;-83
2021/04/18 11:40:53;;;;;;;4.57;3.80;;;;;;;;;;10447092;28;20021;-81
2021/04/18 11:45:56;;;;;;;4.80;4.03;;;;;;;;;;10428849;28;20049;-82
2021/04/18 11:50:57;;;;;;;7.05;6.18;;;;;;;;;;10402591;28;20034;-83
2021/04/18 11:55:58;;;;;;;6.97;5.13;;;;;;;;;;10402574;28;20069;-81
2021/04/18 12:00:59;;;;;;;5.80;5.10;;;;;;;;;;10419964;28;20093;-81
2021/04/18 12:06:00;;;;;;;9.80;7.03;;;;;;;;;;10441849;28;20033;-82
2021/04/18 12:11:01;;;;;;;8.35;6.45;;;;;;;;;;10439674;28;20029;-81
2021/04/18 12:16:02;;;;;;;9.05;7.07;;;;;;;;;;10443751;28;20056;-81
2021/04/18 12:21:14;;;;;;;8.40;7.22;;;;;;;;;;10442590;28;20435;-82
2021/04/18 12:26:35;;;;;;;9.13;5.47;;;;;;;;;;10448749;28;20033;-82
2021/04/18 12:31:39;;;;;;;7.75;6.32;;;;;;;;;;10445366;28;20057;-82
2021/04/18 12:36:40;;;;;;;7.13;5.15;;;;;;;;;;10451706;28;20093;-81
2021/04/18 12:41:46;;;;;;;6.72;5.90;;;;;;;;;;10455275;28;20036;-80
2021/04/18 12:46:47;;;;;;;6.82;4.43;;;;;;;;;;10440194;28;20032;-81
2021/04/18 12:51:48;;;;;;;5.82;3.90;;;;;;;;;;10442164;28;20033;-82
2021/04/18 12:56:49;;;;;;;7.80;4.85;;;;;;;;;;10442126;28;20038;-81
2021/04/18 13:01:50;;;;;;;6.13;4.70;;;;;;;;;;10446219;28;20026;-82
2021/04/18 13:06:51;;;;;;;5.35;3.60;;;;;;;;;;10444296;28;20107;-80
2021/04/18 13:11:52;;;;;;;5.13;4.32;;;;;;;;;;10442206;28;20116;-81
2021/04/18 13:16:53;;;;;;;7.50;5.57;;;;;;;;;;10440327;28;20033;-81
2021/04/18 13:21:54;;;;;;;9.15;6.47;;;;;;;;;;10442929;28;20033;-82
2021/04/18 13:26:55;;;;;;;7.32;6.50;;;;;;;;;;10446565;28;20087;-80
2021/04/18 13:31:56;;;;;;;7.13;6.15;;;;;;;;;;10444831;28;20030;-81
2021/04/18 13:36:57;;;;;;;6.95;6.00;;;;;;;;;;10444613;28;20044;-82
2021/04/18 13:41:58;;;;;;;8.75;7.57;;;;;;;;;;10445152;28;20032;-82
2021/04/18 13:46:59;;;;;;;7.72;7.03;;;;;;;;;;10444001;28;20417;-81
2021/04/18 13:52:00;;;;;;;6.75;5.93;;;;;;;;;;10446381;28;20476;-81
2021/04/18 13:57:01;;;;;;;8.20;6.32;;;;;;;;;;10439262;28;20034;-81
2021/04/18 14:02:02;;;;;;;6.55;5.70;;;;;;;;;;10439136;28;20021;-81
2021/04/18 14:07:03;;;;;;;4.75;3.50;;;;;;;;;;10439406;28;20036;-82
2021/04/18 14:12:04;;;;;;;6.95;6.28;;;;;;;;;;10437325;28;20025;-81
2021/04/18 14:17:05;;;;;;;7.13;6.38;;;;;;;;;;10439301;28;20029;-83
2021/04/18 14:22:06;;;;;;;7.70;5.85;;;;;;;;;;10436033;28;20032;-81
2021/04/18 14:27:07;;;;;;;7.03;5.63;;;;;;;;;;10437547;28;20037;-84
2021/04/18 14:32:08;;;;;;;8.93;6.25;;;;;;;;;;10437043;28;20495;-83
2021/04/18 14:37:10;;;;;;;5.05;4.43;;;;;;;;;;10436759;28;20059;-81
2021/04/18 14:42:11;;;;;;;7.15;5.82;;;;;;;;;;10437423;28;20020;-81
2021/04/18 14:47:17;;;;;;;6.63;5.80;;;;;;;;;;10438728;28;20048;-83
2021/04/18 14:52:18;;;;;;;9.77;6.60;;;;;;;;;;10434059;28;20041;-83
2021/04/18 16:50:10;;;;;;;7.07;6.43;;;;;;;;;;10426778;22;20041;-85
2021/04/18 16:55:11;;;;;;;5.78;3.88;;;;;;;;;;10349540;28;20050;-84
2021/04/18 17:00:12;;;;;;;8.05;6.72;;;;;;;;;;10356833;28;20034;-84
2021/04/18 17:05:14;;;;;;;4.53;4.13;;;;;;;;;;10357475;28;20506;-82
2021/04/18 17:10:16;;;;;;;3.28;2.90;;;;;;;;;;10355114;28;20042;-84
2021/04/18 17:15:17;;;;;;;7.10;6.10;;;;;;;;;;10354306;28;20037;-86
2021/04/18 17:20:18;;;;;;;6.60;5.90;;;;;;;;;;10350549;28;20447;-83
2021/04/18 17:25:20;;;;;;;5.25;4.75;;;;;;;;;;10351231;28;20054;-84
2021/04/18 17:30:21;;;;;;;5.55;4.78;;;;;;;;;;10349442;28;20047;-84
2021/04/18 17:35:22;;;;;;;6.95;6.22;;;;;;;;;;10348306;28;20125;-85
2021/04/18 17:40:23;;;;;;;5.85;4.78;;;;;;;;;;10347426;28;20064;-84
2021/04/18 17:45:24;;;;;;;5.07;4.57;;;;;;;;;;10348275;28;20041;-85
2021/04/18 17:50:25;;;;;;;5.75;5.15;;;;;;;;;;10349856;28;20034;-84
2021/04/18 17:55:26;;;;;;;8.48;6.07;;;;;;;;;;10352091;28;20046;-84
2021/04/18 18:00:27;;;;;;;6.97;6.25;;;;;;;;;;10349047;28;20073;-83
2021/04/18 18:05:28;;;;;;;7.57;6.60;;;;;;;;;;10347518;28;20042;-83
2021/04/18 18:10:29;;;;;;;6.55;5.57;;;;;;;;;;10348944;28;20078;-83
2021/04/18 18:15:30;;;;;;;5.40;4.57;;;;;;;;;;10347113;28;20034;-84
2021/04/18 18:20:32;;;;;;;4.57;3.88;;;;;;;;;;10347333;28;20030;-83
2021/04/18 18:25:34;;;;;;;3.90;3.58;;;;;;;;;;10348508;28;20061;-83
2021/04/18 18:30:35;;;;;;;5.38;4.30;;;;;;;;;;10351245;28;20037;-83
2021/04/18 18:35:36;;;;;;;4.80;4.35;;;;;;;;;;10356245;28;20049;-84
2021/04/18 18:40:37;;;;;;;7.22;6.35;;;;;;;;;;10361413;28;20031;-83
2021/04/18 18:45:38;;;;;;;7.40;6.32;;;;;;;;;;10354502;28;20041;-85
2021/04/18 18:50:39;;;;;;;7.40;6.70;;;;;;;;;;10357753;28;20508;-83
2021/04/18 18:55:41;;;;;;;7.60;6.78;;;;;;;;;;10357409;28;20038;-83
2021/04/18 19:00:43;;;;;;;6.43;5.53;;;;;;;;;;10363357;28;20049;-82
2021/04/18 19:05:45;;;;;;;7.40;6.70;;;;;;;;;;10363786;28;20038;-82
2021/04/18 19:10:46;;;;;;;7.25;6.55;;;;;;;;;;10368970;28;20037;-81
2021/04/18 19:15:47;;;;;;;5.93;5.32;;;;;;;;;;10344328;28;20015;-82
2021/04/18 19:20:48;;;;;;;8.77;7.90;;;;;;;;;;10330050;28;20090;-83
2021/04/18 19:25:49;;;;;;;7.82;7.03;;;;;;;;;;10334048;28;20043;-83
2021/04/18 19:30:50;;;;;;;7.60;6.90;;;;;;;;;;10333796;28;20039;-82
2021/04/18 19:35:58;;;;;;;6.63;6.03;;;;;;;;;;10329924;28;20132;-82
2021/04/18 19:40:59;;;;;;;8.98;8.18;;;;;;;;;;10323052;28;20034;-83
2021/04/18 19:46:01;;;;;;;7.68;6.75;;;;;;;;;;10322144;28;20039;-81
2021/04/18 19:51:02;;;;;;;7.57;6.57;;;;;;;;;;10321476;28;20493;-83
2021/04/18 19:56:04;;;;;;;5.50;3.63;;;;;;;;;;10323237;28;20093;-84
2021/04/18 20:01:05;;;;;;;8.30;6.82;;;;;;;;;;10324281;28;20170;-81
2021/04/18 20:06:08;;;;;;;6.60;6.00;;;;;;;;;;10322421;28;20138;-82
2021/04/18 20:11:09;;;;;;;8.63;7.20;;;;;;;;;;10327862;28;20046;-83
2021/04/18 20:16:09;;;;;;;8.00;5.85;;;;;;;;;;10323981;28;20049;-82
2021/04/18 20:21:10;;;;;;;6.97;6.30;;;;;;;;;;10322389;28;20049;-82
